sensor_id;sensor_type;location;lat;lon;timestamp;pressure;altitude;pressure_sealevel;temperature;humidity
71770;BME280;66386;52.122;5.420;2023-02-03T00:01:50;102536.88;;;7.84;92.03
71770;BME280;66386;52.122;5.420;2023-02-03T00:04:17;102538.59;;;7.85;91.70
71770;BME280;66386;52.122;5.420;2023-02-03T00:06:43;102554.81;;;7.85;91.68
71770;BME280;66386;52.122;5.420;2023-02-03T00:09:10;102554.81;;;7.84;91.98
71770;BME280;66386;52.122;5.420;2023-02-03T00:11:37;102565.09;;;7.87;91.74
71770;BME280;66386;52.122;5.420;2023-02-03T00:14:03;102549.69;;;7.85;91.88
71770;BME280;66386;52.122;5.420;2023-02-03T00:16:30;102560.81;;;7.88;91.68
71770;BME280;66386;52.122;5.420;2023-02-03T00:18:57;102558.25;;;7.91;91.32
71770;BME280;66386;52.122;5.420;2023-02-03T00:21:23;102558.25;;;7.91;91.28
71770;BME280;66386;52.122;5.420;2023-02-03T00:23:50;102558.25;;;7.92;91.09
71770;BME280;66386;52.122;5.420;2023-02-03T00:26:17;102551.41;;;7.86;91.31
71770;BME280;66386;52.122;5.420;2023-02-03T00:28:44;102559.94;;;7.85;91.48
71770;BME280;66386;52.122;5.420;2023-02-03T00:31:16;102571.03;;;7.91;91.03
71770;BME280;66386;52.122;5.420;2023-02-03T00:33:43;102577.00;;;7.90;91.13
71770;BME280;66386;52.122;5.420;2023-02-03T00:36:10;102570.22;;;7.92;90.77
71770;BME280;66386;52.122;5.420;2023-02-03T00:38:37;102575.31;;;7.87;90.97
71770;BME280;66386;52.122;5.420;2023-02-03T00:41:03;102575.31;;;7.87;91.05
71770;BME280;66386;52.122;5.420;2023-02-03T00:43:30;102569.31;;;7.86;90.98
71770;BME280;66386;52.122;5.420;2023-02-03T00:45:57;102565.94;;;7.89;90.77
71770;BME280;66386;52.122;5.420;2023-02-03T00:48:23;102575.31;;;7.90;90.52
71770;BME280;66386;52.122;5.420;2023-02-03T00:50:50;102571.03;;;7.92;90.37
71770;BME280;66386;52.122;5.420;2023-02-03T00:53:16;102580.44;;;7.92;90.41
71770;BME280;66386;52.122;5.420;2023-02-03T00:55:43;102567.66;;;7.93;90.20
71770;BME280;66386;52.122;5.420;2023-02-03T00:58:09;102559.09;;;7.93;90.25
71770;BME280;66386;52.122;5.420;2023-02-03T01:00:36;102559.09;;;7.93;90.27
71770;BME280;66386;52.122;5.420;2023-02-03T01:03:03;102554.84;;;7.92;90.09
71770;BME280;66386;52.122;5.420;2023-02-03T01:05:29;102554.84;;;7.95;89.92
71770;BME280;66386;52.122;5.420;2023-02-03T01:07:56;102548.00;;;7.98;89.66
71770;BME280;66386;52.122;5.420;2023-02-03T01:10:22;102541.16;;;7.94;89.85
71770;BME280;66386;52.122;5.420;2023-02-03T01:12:49;102547.16;;;7.95;89.63
71770;BME280;66386;52.122;5.420;2023-02-03T01:15:15;102548.00;;;7.94;89.64
71770;BME280;66386;52.122;5.420;2023-02-03T01:17:42;102549.72;;;7.98;89.39
71770;BME280;66386;52.122;5.420;2023-02-03T01:20:09;102560.81;;;8.01;89.26
71770;BME280;66386;52.122;5.420;2023-02-03T01:22:37;102557.41;;;8.02;88.88
71770;BME280;66386;52.122;5.420;2023-02-03T01:25:04;102550.56;;;7.98;88.83
71770;BME280;66386;52.122;5.420;2023-02-03T01:27:31;102554.00;;;7.99;89.03
71770;BME280;66386;52.122;5.420;2023-02-03T01:29:58;102536.09;;;7.97;89.19
71770;BME280;66386;52.122;5.420;2023-02-03T01:32:25;102525.81;;;7.94;89.00
71770;BME280;66386;52.122;5.420;2023-02-03T01:34:52;102510.44;;;7.90;89.16
71770;BME280;66386;52.122;5.420;2023-02-03T01:37:18;102503.63;;;7.93;89.01
71770;BME280;66386;52.122;5.420;2023-02-03T01:39:45;102509.59;;;7.94;88.93
71770;BME280;66386;52.122;5.420;2023-02-03T01:42:12;102502.78;;;7.96;88.56
71770;BME280;66386;52.122;5.420;2023-02-03T01:44:45;102507.91;;;7.97;88.54
71770;BME280;66386;52.122;5.420;2023-02-03T01:47:38;102504.47;;;7.95;88.61
71770;BME280;66386;52.122;5.420;2023-02-03T01:50:17;102507.03;;;7.91;88.87
71770;BME280;66386;52.122;5.420;2023-02-03T01:52:52;102513.00;;;7.88;88.42
71770;BME280;66386;52.122;5.420;2023-02-03T01:55:35;102519.00;;;7.92;88.71
71770;BME280;66386;52.122;5.420;2023-02-03T01:58:09;102506.19;;;7.95;88.48
71770;BME280;66386;52.122;5.420;2023-02-03T02:00:37;102498.53;;;7.93;88.54
71770;BME280;66386;52.122;5.420;2023-02-03T02:03:04;102483.16;;;7.92;88.40
71770;BME280;66386;52.122;5.420;2023-02-03T02:05:40;102484.88;;;7.96;88.23
71770;BME280;66386;52.122;5.420;2023-02-03T02:08:11;102477.19;;;7.97;87.95
71770;BME280;66386;52.122;5.420;2023-02-03T02:10:39;102464.38;;;7.99;87.66
71770;BME280;66386;52.122;5.420;2023-02-03T02:13:06;102479.75;;;8.03;87.24
71770;BME280;66386;52.122;5.420;2023-02-03T02:18:17;102490.00;;;8.03;87.04
71770;BME280;66386;52.122;5.420;2023-02-03T02:21:10;102494.25;;;8.09;86.63
71770;BME280;66386;52.122;5.420;2023-02-03T02:24:06;102499.38;;;8.09;86.66
71770;BME280;66386;52.122;5.420;2023-02-03T02:30:10;102517.31;;;8.08;86.90
71770;BME280;66386;52.122;5.420;2023-02-03T02:41:01;102501.06;;;8.07;86.91
71770;BME280;66386;52.122;5.420;2023-02-03T02:43:48;102491.69;;;8.08;86.88
71770;BME280;66386;52.122;5.420;2023-02-03T02:46:23;102495.94;;;8.02;87.02
71770;BME280;66386;52.122;5.420;2023-02-03T02:49:03;102486.59;;;8.04;86.94
71770;BME280;66386;52.122;5.420;2023-02-03T02:51:32;102485.72;;;8.04;87.02
71770;BME280;66386;52.122;5.420;2023-02-03T02:54:02;102478.03;;;8.02;86.92
71770;BME280;66386;52.122;5.420;2023-02-03T02:56:32;102473.75;;;8.01;87.41
71770;BME280;66386;52.122;5.420;2023-02-03T02:59:00;102465.22;;;7.96;87.19
71770;BME280;66386;52.122;5.420;2023-02-03T03:01:28;102474.63;;;7.97;87.11
71770;BME280;66386;52.122;5.420;2023-02-03T03:03:56;102457.56;;;7.99;86.93
71770;BME280;66386;52.122;5.420;2023-02-03T03:06:28;102459.25;;;8.02;86.96
71770;BME280;66386;52.122;5.420;2023-02-03T03:09:11;102456.69;;;8.03;86.85
71770;BME280;66386;52.122;5.420;2023-02-03T03:11:50;102461.81;;;8.03;86.60
71770;BME280;66386;52.122;5.420;2023-02-03T03:14:18;102466.09;;;8.04;86.64
71770;BME280;66386;52.122;5.420;2023-02-03T03:16:52;102464.38;;;8.05;86.41
71770;BME280;66386;52.122;5.420;2023-02-03T03:19:24;102465.22;;;8.09;86.49
71770;BME280;66386;52.122;5.420;2023-02-03T03:21:59;102465.22;;;8.12;86.11
71770;BME280;66386;52.122;5.420;2023-02-03T03:24:31;102463.53;;;8.09;86.54
71770;BME280;66386;52.122;5.420;2023-02-03T03:27:20;102450.72;;;8.06;86.47
71770;BME280;66386;52.122;5.420;2023-02-03T03:29:59;102457.53;;;8.09;86.69
71770;BME280;66386;52.122;5.420;2023-02-03T03:32:28;102450.72;;;8.06;87.03
71770;BME280;66386;52.122;5.420;2023-02-03T03:34:59;102458.41;;;8.04;86.82
71770;BME280;66386;52.122;5.420;2023-02-03T03:37:35;102460.09;;;8.06;86.68
71770;BME280;66386;52.122;5.420;2023-02-03T03:40:14;102478.91;;;8.04;86.88
71770;BME280;66386;52.122;5.420;2023-02-03T03:42:49;102472.91;;;8.07;86.45
71770;BME280;66386;52.122;5.420;2023-02-03T03:48:13;102479.72;;;8.14;86.53
71770;BME280;66386;52.122;5.420;2023-02-03T03:51:03;102488.28;;;8.16;86.49
71770;BME280;66386;52.122;5.420;2023-02-03T03:53:32;102488.28;;;8.15;86.36
71770;BME280;66386;52.122;5.420;2023-02-03T03:56:02;102487.41;;;8.14;86.75
71770;BME280;66386;52.122;5.420;2023-02-03T03:58:31;102496.81;;;8.20;86.24
71770;BME280;66386;52.122;5.420;2023-02-03T04:01:02;102494.25;;;8.20;86.38
71770;BME280;66386;52.122;5.420;2023-02-03T04:03:37;102495.09;;;8.17;86.34
71770;BME280;66386;52.122;5.420;2023-02-03T04:06:05;102495.13;;;8.22;85.93
71770;BME280;66386;52.122;5.420;2023-02-03T04:08:31;102485.72;;;8.23;86.16
71770;BME280;66386;52.122;5.420;2023-02-03T04:10:58;102487.44;;;8.22;86.21
71770;BME280;66386;52.122;5.420;2023-02-03T04:13:24;102482.31;;;8.24;86.20
71770;BME280;66386;52.122;5.420;2023-02-03T04:15:51;102478.88;;;8.23;86.02
71770;BME280;66386;52.122;5.420;2023-02-03T04:18:17;102490.84;;;8.23;86.05
71770;BME280;66386;52.122;5.420;2023-02-03T04:20:44;102495.13;;;8.27;85.61
71770;BME280;66386;52.122;5.420;2023-02-03T04:23:10;102490.00;;;8.28;85.42
71770;BME280;66386;52.122;5.420;2023-02-03T04:25:36;102501.06;;;8.29;85.43
71770;BME280;66386;52.122;5.420;2023-02-03T04:28:03;102498.50;;;8.33;85.43
71770;BME280;66386;52.122;5.420;2023-02-03T04:30:31;102486.56;;;8.38;84.83
71770;BME280;66386;52.122;5.420;2023-02-03T04:32:57;102478.03;;;8.43;84.94
71770;BME280;66386;52.122;5.420;2023-02-03T04:35:24;102475.44;;;8.38;84.92
71770;BME280;66386;52.122;5.420;2023-02-03T04:37:51;102479.72;;;8.39;84.83
71770;BME280;66386;52.122;5.420;2023-02-03T04:40:17;102478.03;;;8.43;84.76
71770;BME280;66386;52.122;5.420;2023-02-03T04:42:44;102479.72;;;8.44;84.04
71770;BME280;66386;52.122;5.420;2023-02-03T04:45:11;102486.56;;;8.46;84.21
71770;BME280;66386;52.122;5.420;2023-02-03T04:47:38;102490.84;;;8.43;84.26
71770;BME280;66386;52.122;5.420;2023-02-03T04:50:05;102463.53;;;8.45;84.32
71770;BME280;66386;52.122;5.420;2023-02-03T04:52:32;102487.44;;;8.50;84.01
71770;BME280;66386;52.122;5.420;2023-02-03T04:54:59;102473.75;;;8.51;84.17
71770;BME280;66386;52.122;5.420;2023-02-03T04:57:25;102465.22;;;8.49;84.10
71770;BME280;66386;52.122;5.420;2023-02-03T04:59:51;102477.16;;;8.45;84.65
71770;BME280;66386;52.122;5.420;2023-02-03T05:02:18;102472.91;;;8.43;84.54
71770;BME280;66386;52.122;5.420;2023-02-03T05:04:44;102466.91;;;8.44;84.49
71770;BME280;66386;52.122;5.420;2023-02-03T05:07:11;102463.50;;;8.46;84.49
71770;BME280;66386;52.122;5.420;2023-02-03T05:09:37;102462.66;;;8.46;84.53
71770;BME280;66386;52.122;5.420;2023-02-03T05:12:04;102466.09;;;8.45;84.62
71770;BME280;66386;52.122;5.420;2023-02-03T05:14:30;102468.63;;;8.48;84.38
71770;BME280;66386;52.122;5.420;2023-02-03T05:16:57;102470.34;;;8.52;84.33
71770;BME280;66386;52.122;5.420;2023-02-03T05:19:23;102479.75;;;8.50;84.32
71770;BME280;66386;52.122;5.420;2023-02-03T05:21:50;102486.56;;;8.49;84.32
71770;BME280;66386;52.122;5.420;2023-02-03T05:24:16;102498.53;;;8.55;84.17
71770;BME280;66386;52.122;5.420;2023-02-03T05:26:43;102491.69;;;8.59;83.66
71770;BME280;66386;52.122;5.420;2023-02-03T05:29:09;102472.03;;;8.64;83.52
71770;BME280;66386;52.122;5.420;2023-02-03T05:31:37;102469.47;;;8.64;83.47
71770;BME280;66386;52.122;5.420;2023-02-03T05:34:03;102469.44;;;8.67;83.38
71770;BME280;66386;52.122;5.420;2023-02-03T05:36:30;102482.25;;;8.70;83.31
71770;BME280;66386;52.122;5.420;2023-02-03T05:38:57;102494.22;;;8.68;83.33
71770;BME280;66386;52.122;5.420;2023-02-03T05:41:23;102469.44;;;8.70;83.23
71770;BME280;66386;52.122;5.420;2023-02-03T05:44:08;102486.53;;;8.69;83.01
71770;BME280;66386;52.122;5.420;2023-02-03T05:46:35;102497.63;;;8.68;83.19
71770;BME280;66386;52.122;5.420;2023-02-03T05:49:01;102492.53;;;8.65;83.30
71770;BME280;66386;52.122;5.420;2023-02-03T05:51:28;102499.38;;;8.66;83.52
71770;BME280;66386;52.122;5.420;2023-02-03T05:53:54;102492.53;;;8.65;83.15
71770;BME280;66386;52.122;5.420;2023-02-03T05:56:21;102489.94;;;8.67;83.31
71770;BME280;66386;52.122;5.420;2023-02-03T05:58:47;102479.69;;;8.67;83.04
71770;BME280;66386;52.122;5.420;2023-02-03T06:01:16;102487.41;;;8.65;83.36
71770;BME280;66386;52.122;5.420;2023-02-03T06:03:44;102470.28;;;8.66;83.34
71770;BME280;66386;52.122;5.420;2023-02-03T06:06:12;102471.16;;;8.66;83.41
71770;BME280;66386;52.122;5.420;2023-02-03T06:08:38;102471.16;;;8.66;83.38
71770;BME280;66386;52.122;5.420;2023-02-03T06:11:05;102479.69;;;8.65;83.43
71770;BME280;66386;52.122;5.420;2023-02-03T06:13:31;102482.25;;;8.65;83.63
71770;BME280;66386;52.122;5.420;2023-02-03T06:15:58;102482.25;;;8.65;83.24
71770;BME280;66386;52.122;5.420;2023-02-03T06:18:24;102472.88;;;8.63;83.61
71770;BME280;66386;52.122;5.420;2023-02-03T06:20:51;102478.88;;;8.65;83.57
71770;BME280;66386;52.122;5.420;2023-02-03T06:23:17;102479.69;;;8.68;83.36
71770;BME280;66386;52.122;5.420;2023-02-03T06:25:46;102472.88;;;8.69;83.19
71770;BME280;66386;52.122;5.420;2023-02-03T06:28:13;102489.09;;;8.69;83.50
71770;BME280;66386;52.122;5.420;2023-02-03T06:30:40;102491.66;;;8.68;83.38
71770;BME280;66386;52.122;5.420;2023-02-03T06:33:06;102493.38;;;8.67;83.58
71770;BME280;66386;52.122;5.420;2023-02-03T06:35:33;102499.38;;;8.66;83.14
71770;BME280;66386;52.122;5.420;2023-02-03T06:37:59;102487.38;;;8.67;83.40
71770;BME280;66386;52.122;5.420;2023-02-03T06:40:26;102487.41;;;8.64;83.38
71770;BME280;66386;52.122;5.420;2023-02-03T06:42:53;102485.66;;;8.66;83.50
71770;BME280;66386;52.122;5.420;2023-02-03T06:45:19;102486.56;;;8.65;83.63
71770;BME280;66386;52.122;5.420;2023-02-03T06:47:46;102476.31;;;8.60;83.90
71770;BME280;66386;52.122;5.420;2023-02-03T06:50:14;102475.44;;;8.64;83.68
71770;BME280;66386;52.122;5.420;2023-02-03T06:52:41;102498.50;;;8.63;83.92
71770;BME280;66386;52.122;5.420;2023-02-03T06:55:08;102507.06;;;8.62;83.96
71770;BME280;66386;52.122;5.420;2023-02-03T06:57:42;102487.41;;;8.61;84.00
71770;BME280;66386;52.122;5.420;2023-02-03T07:00:09;102510.47;;;8.62;84.12
71770;BME280;66386;52.122;5.420;2023-02-03T07:02:39;102519.88;;;8.62;84.05
71770;BME280;66386;52.122;5.420;2023-02-03T07:05:06;102529.25;;;8.61;83.86
71770;BME280;66386;52.122;5.420;2023-02-03T07:07:33;102528.41;;;8.61;84.08
71770;BME280;66386;52.122;5.420;2023-02-03T07:10:00;102533.53;;;8.61;84.05
71770;BME280;66386;52.122;5.420;2023-02-03T07:12:27;102541.22;;;8.62;84.09
71770;BME280;66386;52.122;5.420;2023-02-03T07:14:54;102534.38;;;8.61;84.14
71770;BME280;66386;52.122;5.420;2023-02-03T07:17:20;102542.06;;;8.61;83.99
71770;BME280;66386;52.122;5.420;2023-02-03T07:19:46;102541.22;;;8.61;84.10
71770;BME280;66386;52.122;5.420;2023-02-03T07:22:13;102543.78;;;8.61;84.20
71770;BME280;66386;52.122;5.420;2023-02-03T07:24:39;102522.44;;;8.60;84.43
71770;BME280;66386;52.122;5.420;2023-02-03T07:27:06;102539.50;;;8.61;84.38
71770;BME280;66386;52.122;5.420;2023-02-03T07:29:32;102537.81;;;8.59;84.42
71770;BME280;66386;52.122;5.420;2023-02-03T07:31:59;102545.53;;;8.59;84.38
71770;BME280;66386;52.122;5.420;2023-02-03T07:34:28;102549.78;;;8.56;84.72
71770;BME280;66386;52.122;5.420;2023-02-03T07:36:55;102552.34;;;8.58;84.49
71770;BME280;66386;52.122;5.420;2023-02-03T07:39:22;102548.06;;;8.62;84.54
71770;BME280;66386;52.122;5.420;2023-02-03T07:41:48;102540.38;;;8.60;84.76
71770;BME280;66386;52.122;5.420;2023-02-03T07:44:15;102541.25;;;8.58;84.79
71770;BME280;66386;52.122;5.420;2023-02-03T07:46:41;102541.25;;;8.58;84.78
71770;BME280;66386;52.122;5.420;2023-02-03T07:49:10;102543.81;;;8.59;84.92
71770;BME280;66386;52.122;5.420;2023-02-03T07:51:37;102548.06;;;8.62;84.92
71770;BME280;66386;52.122;5.420;2023-02-03T07:54:03;102549.75;;;8.63;84.90
71770;BME280;66386;52.122;5.420;2023-02-03T07:56:31;102553.19;;;8.63;84.90
71770;BME280;66386;52.122;5.420;2023-02-03T07:58:59;102574.53;;;8.62;84.99
71770;BME280;66386;52.122;5.420;2023-02-03T08:01:25;102571.13;;;8.63;85.13
71770;BME280;66386;52.122;5.420;2023-02-03T08:03:52;102555.75;;;8.63;85.23
71770;BME280;66386;52.122;5.420;2023-02-03T08:06:20;102554.03;;;8.65;85.15
71770;BME280;66386;52.122;5.420;2023-02-03T08:08:47;102560.88;;;8.65;85.06
71770;BME280;66386;52.122;5.420;2023-02-03T08:11:13;102569.41;;;8.67;85.23
71770;BME280;66386;52.122;5.420;2023-02-03T08:13:40;102565.16;;;8.67;85.35
71770;BME280;66386;52.122;5.420;2023-02-03T08:16:06;102571.97;;;8.65;85.32
71770;BME280;66386;52.122;5.420;2023-02-03T08:18:33;102577.09;;;8.68;85.35
71770;BME280;66386;52.122;5.420;2023-02-03T08:20:59;102585.66;;;8.69;85.32
71770;BME280;66386;52.122;5.420;2023-02-03T08:23:28;102582.22;;;8.71;85.11
71770;BME280;66386;52.122;5.420;2023-02-03T08:25:55;102578.81;;;8.74;85.23
71770;BME280;66386;52.122;5.420;2023-02-03T08:28:21;102589.06;;;8.76;85.15
71770;BME280;66386;52.122;5.420;2023-02-03T08:30:48;102586.50;;;8.79;85.21
71770;BME280;66386;52.122;5.420;2023-02-03T08:33:14;102591.63;;;8.79;85.36
71770;BME280;66386;52.122;5.420;2023-02-03T08:35:45;102597.63;;;8.79;85.23
71770;BME280;66386;52.122;5.420;2023-02-03T08:38:11;102604.44;;;8.80;85.13
71770;BME280;66386;52.122;5.420;2023-02-03T08:40:38;102593.31;;;8.81;85.26
71770;BME280;66386;52.122;5.420;2023-02-03T08:43:04;102597.63;;;8.81;85.12
71770;BME280;66386;52.122;5.420;2023-02-03T08:45:30;102601.03;;;8.81;85.18
71770;BME280;66386;52.122;5.420;2023-02-03T08:47:57;102602.72;;;8.84;85.27
71770;BME280;66386;52.122;5.420;2023-02-03T08:50:24;102598.44;;;8.86;85.17
71770;BME280;66386;52.122;5.420;2023-02-03T08:52:51;102609.56;;;8.88;85.42
71770;BME280;66386;52.122;5.420;2023-02-03T08:55:17;102601.00;;;8.89;85.43
71770;BME280;66386;52.122;5.420;2023-02-03T08:57:44;102605.28;;;8.91;85.15
71770;BME280;66386;52.122;5.420;2023-02-03T09:00:11;102607.00;;;8.94;85.51
71770;BME280;66386;52.122;5.420;2023-02-03T09:02:38;102612.13;;;8.96;85.12
71770;BME280;66386;52.122;5.420;2023-02-03T09:05:04;102606.97;;;8.97;85.34
71770;BME280;66386;52.122;5.420;2023-02-03T09:07:31;102613.81;;;9.03;84.93
71770;BME280;66386;52.122;5.420;2023-02-03T09:09:58;102615.53;;;9.05;84.92
71770;BME280;66386;52.122;5.420;2023-02-03T09:12:25;102620.66;;;9.08;84.77
71770;BME280;66386;52.122;5.420;2023-02-03T09:14:51;102624.06;;;9.11;84.67
71770;BME280;66386;52.122;5.420;2023-02-03T09:17:18;102626.59;;;9.14;84.74
71770;BME280;66386;52.122;5.420;2023-02-03T09:19:44;102626.59;;;9.15;84.43
71770;BME280;66386;52.122;5.420;2023-02-03T09:22:11;102614.66;;;9.17;84.25
71770;BME280;66386;52.122;5.420;2023-02-03T09:24:38;102635.16;;;9.19;84.42
71770;BME280;66386;52.122;5.420;2023-02-03T09:27:05;102630.03;;;9.22;83.91
71770;BME280;66386;52.122;5.420;2023-02-03T09:29:31;102636.88;;;9.24;84.30
71770;BME280;66386;52.122;5.420;2023-02-03T09:31:58;102630.00;;;9.25;84.26
71770;BME280;66386;52.122;5.420;2023-02-03T09:34:25;102624.88;;;9.25;84.15
71770;BME280;66386;52.122;5.420;2023-02-03T09:36:51;102643.69;;;9.27;84.10
71770;BME280;66386;52.122;5.420;2023-02-03T09:39:18;102630.84;;;9.29;84.21
71770;BME280;66386;52.122;5.420;2023-02-03T09:44:55;102628.28;;;9.29;83.95
71770;BME280;66386;52.122;5.420;2023-02-03T09:47:27;102641.97;;;9.29;84.17
71770;BME280;66386;52.122;5.420;2023-02-03T09:49:59;102646.25;;;9.30;84.08
71770;BME280;66386;52.122;5.420;2023-02-03T09:52:32;102659.09;;;9.30;84.26
71770;BME280;66386;52.122;5.420;2023-02-03T09:55:11;102654.81;;;9.32;83.80
71770;BME280;66386;52.122;5.420;2023-02-03T09:57:47;102639.41;;;9.34;84.17
71770;BME280;66386;52.122;5.420;2023-02-03T10:00:21;102650.50;;;9.34;84.08
71770;BME280;66386;52.122;5.420;2023-02-03T10:03:00;102645.38;;;9.36;83.91
71770;BME280;66386;52.122;5.420;2023-02-03T10:11:13;102656.50;;;9.39;83.73
71770;BME280;66386;52.122;5.420;2023-02-03T10:19:20;102678.72;;;9.45;84.01
71770;BME280;66386;52.122;5.420;2023-02-03T10:21:53;102668.47;;;9.45;83.58
71770;BME280;66386;52.122;5.420;2023-02-03T10:24:55;102672.75;;;9.48;83.55
71770;BME280;66386;52.122;5.420;2023-02-03T10:27:23;102676.16;;;9.50;83.62
71770;BME280;66386;52.122;5.420;2023-02-03T10:30:02;102674.41;;;9.52;83.40
71770;BME280;66386;52.122;5.420;2023-02-03T10:32:29;102682.97;;;9.54;83.61
71770;BME280;66386;52.122;5.420;2023-02-03T10:34:56;102688.94;;;9.57;83.52
71770;BME280;66386;52.122;5.420;2023-02-03T10:37:29;102685.53;;;9.58;83.03
71770;BME280;66386;52.122;5.420;2023-02-03T10:39:58;102688.09;;;9.58;82.93
71770;BME280;66386;52.122;5.420;2023-02-03T10:42:28;102690.66;;;9.60;82.91
71770;BME280;66386;52.122;5.420;2023-02-03T10:45:15;102695.78;;;9.63;83.20
71770;BME280;66386;52.122;5.420;2023-02-03T10:47:45;102688.06;;;9.63;83.09
71770;BME280;66386;52.122;5.420;2023-02-03T10:50:16;102697.50;;;9.64;83.36
71770;BME280;66386;52.122;5.420;2023-02-03T10:52:42;102702.63;;;9.67;83.23
71770;BME280;66386;52.122;5.420;2023-02-03T10:57:52;102703.44;;;9.71;82.67
71770;BME280;66386;52.122;5.420;2023-02-03T11:00:32;102684.63;;;9.73;82.99
71770;BME280;66386;52.122;5.420;2023-02-03T11:03:19;102685.47;;;9.77;82.73
71770;BME280;66386;52.122;5.420;2023-02-03T11:06:12;102687.16;;;9.76;82.93
71770;BME280;66386;52.122;5.420;2023-02-03T11:08:41;102693.19;;;9.78;82.69
71770;BME280;66386;52.122;5.420;2023-02-03T11:11:13;102706.88;;;9.76;82.90
71770;BME280;66386;52.122;5.420;2023-02-03T11:13:40;102710.28;;;9.75;82.92
71770;BME280;66386;52.122;5.420;2023-02-03T11:16:14;102712.03;;;9.70;82.70
71770;BME280;66386;52.122;5.420;2023-02-03T11:18:58;102713.72;;;9.69;82.81
71770;BME280;66386;52.122;5.420;2023-02-03T11:21:27;102715.44;;;9.70;83.03
71770;BME280;66386;52.122;5.420;2023-02-03T11:24:19;102709.47;;;9.68;83.06
71770;BME280;66386;52.122;5.420;2023-02-03T11:26:52;102706.91;;;9.67;83.12
71770;BME280;66386;52.122;5.420;2023-02-03T11:29:25;102707.75;;;9.66;83.39
71770;BME280;66386;52.122;5.420;2023-02-03T11:31:55;102704.31;;;9.64;83.32
71770;BME280;66386;52.122;5.420;2023-02-03T11:34:34;102700.91;;;9.63;83.58
71770;BME280;66386;52.122;5.420;2023-02-03T11:37:33;102706.06;;;9.61;83.43
71770;BME280;66386;52.122;5.420;2023-02-03T11:42:33;102707.75;;;9.66;83.60
71770;BME280;66386;52.122;5.420;2023-02-03T11:47:49;102706.91;;;9.65;83.57
71770;BME280;66386;52.122;5.420;2023-02-03T11:53:24;102702.66;;;9.61;83.87
71770;BME280;66386;52.122;5.420;2023-02-03T11:59:06;102690.66;;;9.61;84.02
71770;BME280;66386;52.122;5.420;2023-02-03T12:05:03;102696.66;;;9.65;83.84
71770;BME280;66386;52.122;5.420;2023-02-03T12:10:32;102694.94;;;9.64;84.01
71770;BME280;66386;52.122;5.420;2023-02-03T12:18:55;102709.50;;;9.53;84.80
71770;BME280;66386;52.122;5.420;2023-02-03T12:22:03;102726.63;;;9.54;84.33
71770;BME280;66386;52.122;5.420;2023-02-03T12:29:56;102730.06;;;9.39;86.14
71770;BME280;66386;52.122;5.420;2023-02-03T12:32:37;102730.06;;;9.39;86.54
71770;BME280;66386;52.122;5.420;2023-02-03T12:35:19;102740.31;;;9.34;86.49
71770;BME280;66386;52.122;5.420;2023-02-03T12:38:27;102743.78;;;9.30;86.58
71770;BME280;66386;52.122;5.420;2023-02-03T12:40:58;102746.31;;;9.27;87.16
71770;BME280;66386;52.122;5.420;2023-02-03T12:43:50;102743.75;;;9.21;87.66
71770;BME280;66386;52.122;5.420;2023-02-03T12:46:22;102751.47;;;9.18;88.17
71770;BME280;66386;52.122;5.420;2023-02-03T12:49:31;102760.00;;;9.12;88.43
71770;BME280;66386;52.122;5.420;2023-02-03T12:51:53;102773.69;;;9.09;88.43
71770;BME280;66386;52.122;5.420;2023-02-03T12:54:41;102774.56;;;9.08;88.92
71770;BME280;66386;52.122;5.420;2023-02-03T12:57:19;102778.81;;;9.03;88.75
71770;BME280;66386;52.122;5.420;2023-02-03T13:00:03;102784.81;;;9.02;88.88
71770;BME280;66386;52.122;5.420;2023-02-03T13:02:40;102793.34;;;9.06;88.93
71770;BME280;66386;52.122;5.420;2023-02-03T13:05:27;102785.66;;;9.07;89.02
71770;BME280;66386;52.122;5.420;2023-02-03T13:08:09;102789.94;;;9.07;89.06
71770;BME280;66386;52.122;5.420;2023-02-03T13:10:48;102785.66;;;9.11;88.81
71770;BME280;66386;52.122;5.420;2023-02-03T13:13:22;102791.66;;;9.13;88.74
71770;BME280;66386;52.122;5.420;2023-02-03T13:15:52;102784.81;;;9.15;88.13
71770;BME280;66386;52.122;5.420;2023-02-03T13:18:30;102789.09;;;9.17;87.92
71770;BME280;66386;52.122;5.420;2023-02-03T13:20:58;102787.38;;;9.21;87.88
71770;BME280;66386;52.122;5.420;2023-02-03T13:23:25;102789.09;;;9.22;87.69
71770;BME280;66386;52.122;5.420;2023-02-03T13:31:09;102790.81;;;9.26;86.50
71770;BME280;66386;52.122;5.420;2023-02-03T13:39:46;102795.09;;;9.30;85.46
71770;BME280;66386;52.122;5.420;2023-02-03T13:42:25;102794.22;;;9.34;85.20
71770;BME280;66386;52.122;5.420;2023-02-03T13:45:05;102787.38;;;9.33;85.36
71770;BME280;66386;52.122;5.420;2023-02-03T13:47:34;102784.81;;;9.33;85.44
71770;BME280;66386;52.122;5.420;2023-02-03T13:50:07;102782.25;;;9.32;84.96
71770;BME280;66386;52.122;5.420;2023-02-03T13:53:06;102783.94;;;9.31;83.93
71770;BME280;66386;52.122;5.420;2023-02-03T13:55:42;102788.22;;;9.32;83.50
71770;BME280;66386;52.122;5.420;2023-02-03T13:58:21;102786.50;;;9.31;83.63
71770;BME280;66386;52.122;5.420;2023-02-03T14:03:41;102794.22;;;9.30;83.77
71770;BME280;66386;52.122;5.420;2023-02-03T14:09:44;102786.53;;;9.28;82.35
71770;BME280;66386;52.122;5.420;2023-02-03T14:18:02;102808.75;;;9.29;80.99
71770;BME280;66386;52.122;5.420;2023-02-03T14:22:59;102824.16;;;9.29;80.71
71770;BME280;66386;52.122;5.420;2023-02-03T14:25:37;102813.91;;;9.28;81.20
71770;BME280;66386;52.122;5.420;2023-02-03T14:28:09;102826.72;;;9.26;80.39
71770;BME280;66386;52.122;5.420;2023-02-03T14:33:52;102835.28;;;9.23;79.79
71770;BME280;66386;52.122;5.420;2023-02-03T14:38:53;102841.25;;;9.22;80.02
71770;BME280;66386;52.122;5.420;2023-02-03T14:44:32;102843.81;;;9.16;79.08
71770;BME280;66386;52.122;5.420;2023-02-03T14:49:41;102859.22;;;9.13;78.70
71770;BME280;66386;52.122;5.420;2023-02-03T14:57:40;102851.50;;;9.08;78.45
71770;BME280;66386;52.122;5.420;2023-02-03T15:05:38;102854.06;;;9.05;78.82
71770;BME280;66386;52.122;5.420;2023-02-03T15:10:58;102856.63;;;9.02;77.71
71770;BME280;66386;52.122;5.420;2023-02-03T15:13:31;102848.06;;;8.97;77.98